createdAt,value
2023-03-17T00:01:16.549Z,100942.25
2023-03-17T00:03:45.584Z,100949.28
2023-03-17T00:06:17.353Z,100944.22
2023-03-17T00:08:46.238Z,100925.28
2023-03-17T00:11:15.013Z,100917.63
2023-03-17T00:13:42.268Z,100927.28
2023-03-17T00:16:29.325Z,100955.22
2023-03-17T00:18:57.615Z,100952.75
2023-03-17T00:21:30.569Z,100949.44
2023-03-17T00:23:58.447Z,100944.38
2023-03-17T00:26:25.242Z,100937.56
2023-03-17T00:28:53.038Z,100930.66
2023-03-17T00:31:23.866Z,100935.91
2023-03-17T00:33:55.083Z,100929.91
2023-03-17T00:36:26.127Z,100923.06
2023-03-17T00:38:52.799Z,100928.38
2023-03-17T00:41:19.895Z,100927.53
2023-03-17T00:43:46.419Z,100931.09
2023-03-17T00:46:19.674Z,100923.38
2023-03-17T00:48:46.796Z,100923.38
2023-03-17T00:51:13.334Z,100919.25
2023-03-17T00:53:39.916Z,100929.59
2023-03-17T00:56:14.484Z,100930.56
2023-03-17T00:58:41.207Z,100933.22
2023-03-17T01:01:08.731Z,100923.00
2023-03-17T01:03:35.472Z,100922.13
2023-03-17T01:06:03.419Z,100909.25
2023-03-17T01:08:31.393Z,100896.31
2023-03-17T01:10:58.596Z,100888.63
2023-03-17T01:13:25.369Z,100883.50
2023-03-17T01:15:52.553Z,100875.75
2023-03-17T01:18:22.823Z,100879.16
2023-03-17T01:20:50.289Z,100888.63
2023-03-17T01:23:17.847Z,100902.50
2023-03-17T01:25:44.884Z,100896.41
2023-03-17T01:28:17.972Z,100901.59
2023-03-17T01:30:45.225Z,100905.84
2023-03-17T01:33:13.110Z,100900.66
2023-03-17T01:35:41.461Z,100894.59
2023-03-17T01:38:08.636Z,100897.19
2023-03-17T01:40:44.386Z,100895.44
2023-03-17T01:43:10.829Z,100885.19
2023-03-17T01:46:17.125Z,100888.69
2023-03-17T01:48:57.157Z,100887.06
2023-03-17T01:51:33.244Z,100882.00
2023-03-17T01:54:06.744Z,100886.41
2023-03-17T01:56:33.608Z,100885.69
2023-03-17T01:59:02.761Z,100886.66
2023-03-17T02:01:37.392Z,100880.75
2023-03-17T02:04:04.998Z,100866.09
2023-03-17T02:06:32.362Z,100863.66
2023-03-17T02:09:00.697Z,100863.66
2023-03-17T02:11:28.533Z,100859.41
2023-03-17T02:13:55.071Z,100854.34
2023-03-17T02:16:21.639Z,100847.63
2023-03-17T02:18:49.658Z,100852.81
2023-03-17T02:21:25.191Z,100846.84
2023-03-17T02:23:51.706Z,100852.94
2023-03-17T02:26:20.041Z,100851.31
2023-03-17T02:28:46.500Z,100855.63
2023-03-17T02:31:13.118Z,100859.09
2023-03-17T02:33:39.581Z,100852.28
2023-03-17T02:36:06.350Z,100848.84
2023-03-17T02:38:32.850Z,100843.69
2023-03-17T02:40:59.299Z,100848.78
2023-03-17T02:43:25.756Z,100833.25
2023-03-17T02:45:52.269Z,100844.50
2023-03-17T02:48:19.367Z,100846.19
2023-03-17T02:50:45.970Z,100831.56
2023-03-17T02:53:14.621Z,100834.19
2023-03-17T02:55:42.098Z,100835.94
2023-03-17T02:58:08.599Z,100838.50
2023-03-17T03:00:35.101Z,100844.56
2023-03-17T03:03:01.581Z,100852.31
2023-03-17T03:05:28.841Z,100849.75
2023-03-17T03:07:55.614Z,100847.09
2023-03-17T03:10:22.109Z,100855.72
2023-03-17T03:12:48.544Z,100849.63
2023-03-17T03:15:15.678Z,100844.41
2023-03-17T03:17:42.136Z,100836.63
2023-03-17T03:20:11.456Z,100842.63
2023-03-17T03:22:37.935Z,100830.53
2023-03-17T03:25:05.081Z,100837.47
2023-03-17T03:27:32.474Z,100827.94
2023-03-17T03:29:58.938Z,100828.78
2023-03-17T03:32:25.901Z,100840.88
2023-03-17T03:34:52.942Z,100845.16
2023-03-17T03:37:21.564Z,100837.34
2023-03-17T03:39:48.005Z,100839.84
2023-03-17T03:42:14.469Z,100842.44
2023-03-17T03:44:40.948Z,100846.66
2023-03-17T03:47:07.609Z,100854.34
2023-03-17T03:49:34.078Z,100852.56
2023-03-17T03:52:00.522Z,100848.22
2023-03-17T03:54:27.013Z,100846.53
2023-03-17T03:56:53.477Z,100850.81
2023-03-17T03:59:20.045Z,100843.03
2023-03-17T04:01:46.523Z,100840.53
2023-03-17T04:04:12.948Z,100849.97
2023-03-17T04:06:39.682Z,100837.81
2023-03-17T04:09:10.806Z,100840.41
2023-03-17T04:11:37.261Z,100841.25
2023-03-17T04:14:04.123Z,100846.41
2023-03-17T04:16:30.567Z,100849.84
2023-03-17T04:18:57.723Z,100852.44
2023-03-17T04:21:24.224Z,100865.31
2023-03-17T04:23:50.687Z,100870.50
2023-03-17T04:26:18.702Z,100861.84
2023-03-17T04:28:45.200Z,100850.56
2023-03-17T04:31:15.462Z,100862.69
2023-03-17T04:33:42.299Z,100854.06
2023-03-17T04:36:17.208Z,100851.41
2023-03-17T04:38:43.653Z,100850.50
2023-03-17T04:41:10.264Z,100836.69
2023-03-17T04:43:36.934Z,100845.38
2023-03-17T04:46:03.476Z,100858.28
2023-03-17T04:48:30.001Z,100861.72
2023-03-17T04:50:56.499Z,100863.31
2023-03-17T04:53:23.303Z,100869.38
2023-03-17T04:55:49.708Z,100861.53
2023-03-17T04:58:29.972Z,100851.16
2023-03-17T05:00:57.047Z,100862.31
2023-03-17T05:03:27.621Z,100857.97
2023-03-17T05:05:54.497Z,100855.28
2023-03-17T05:08:20.972Z,100846.69
2023-03-17T05:10:47.437Z,100867.41
2023-03-17T05:13:13.972Z,100857.06
2023-03-17T05:15:40.636Z,100860.47
2023-03-17T05:18:07.132Z,100869.09
2023-03-17T05:20:33.601Z,100876.81
2023-03-17T05:23:00.029Z,100868.22
2023-03-17T05:25:28.005Z,100858.69
2023-03-17T05:27:54.575Z,100857.75
2023-03-17T05:30:21.048Z,100847.41
2023-03-17T05:32:47.591Z,100855.13
2023-03-17T05:35:14.067Z,100848.22
2023-03-17T05:37:40.713Z,100856.84
2023-03-17T05:40:08.350Z,100853.41
2023-03-17T05:42:34.941Z,100846.63
2023-03-17T05:45:01.398Z,100843.25
2023-03-17T05:47:28.442Z,100842.41
2023-03-17T05:49:54.935Z,100829.50
2023-03-17T05:52:22.083Z,100817.47
2023-03-17T05:54:49.083Z,100820.91
2023-03-17T05:57:16.265Z,100814.03
2023-03-17T05:59:44.378Z,100824.31
2023-03-17T06:02:11.566Z,100814.75
2023-03-17T06:04:38.978Z,100812.16
2023-03-17T06:07:06.195Z,100816.38
2023-03-17T06:09:33.652Z,100826.66
2023-03-17T06:12:00.459Z,100824.03
2023-03-17T06:14:27.339Z,100824.03
2023-03-17T06:16:54.145Z,100821.44
2023-03-17T06:19:20.950Z,100825.69
2023-03-17T06:21:48.223Z,100819.59
2023-03-17T06:24:14.696Z,100822.19
2023-03-17T06:26:42.455Z,100826.41
2023-03-17T06:29:10.081Z,100825.50
2023-03-17T06:31:37.337Z,100830.56
2023-03-17T06:34:03.927Z,100831.38
2023-03-17T06:36:32.126Z,100831.38
2023-03-17T06:39:00.583Z,100831.34
2023-03-17T06:41:27.564Z,100845.84
2023-03-17T06:43:56.568Z,100844.88
2023-03-17T06:46:24.625Z,100845.66
2023-03-17T06:48:51.070Z,100853.38
2023-03-17T06:51:17.532Z,100868.69
2023-03-17T06:53:43.981Z,100859.78
2023-03-17T06:56:23.516Z,100848.31
2023-03-17T06:58:51.200Z,100848.03
2023-03-17T07:01:17.787Z,100848.75
2023-03-17T07:03:44.467Z,100853.59
2023-03-17T07:06:11.177Z,100857.69
2023-03-17T07:08:37.656Z,100854.88
2023-03-17T07:11:04.580Z,100845.16
2023-03-17T07:13:35.484Z,100847.53
2023-03-17T07:16:05.428Z,100843.94
2023-03-17T07:18:34.916Z,100845.50
2023-03-17T07:21:02.249Z,100841.84
2023-03-17T07:23:30.277Z,100841.56
2023-03-17T07:25:59.825Z,100843.22
2023-03-17T07:28:26.233Z,100850.72
2023-03-17T07:30:52.706Z,100843.69
2023-03-17T07:33:22.422Z,100841.75
2023-03-17T07:35:49.707Z,100846.56
2023-03-17T07:38:17.819Z,100847.97
2023-03-17T07:40:47.635Z,100852.88
2023-03-17T07:43:15.173Z,100857.88
2023-03-17T07:45:42.296Z,100857.66
2023-03-17T07:48:09.595Z,100854.06
2023-03-17T07:50:37.143Z,100857.28
2023-03-17T07:53:04.677Z,100852.91
2023-03-17T07:55:32.630Z,100849.19
2023-03-17T07:57:59.560Z,100847.78
2023-03-17T08:00:27.096Z,100850.97
2023-03-17T08:03:06.963Z,100854.41
2023-03-17T08:05:35.670Z,100853.53
2023-03-17T08:08:02.110Z,100837.75
2023-03-17T08:10:28.684Z,100838.22
2023-03-17T08:12:55.682Z,100836.03
2023-03-17T08:15:22.541Z,100832.94
2023-03-17T08:17:49.117Z,100829.72
2023-03-17T08:20:15.748Z,100830.00
2023-03-17T08:22:42.317Z,100826.94
2023-03-17T08:25:09.791Z,100831.44
2023-03-17T08:27:36.281Z,100822.72
2023-03-17T08:30:04.759Z,100831.56
2023-03-17T08:32:31.271Z,100823.47
2023-03-17T08:35:00.063Z,100830.97
2023-03-17T08:37:26.672Z,100821.88
2023-03-17T08:39:53.099Z,100822.31
2023-03-17T08:42:19.513Z,100826.34
2023-03-17T08:44:46.532Z,100827.50
2023-03-17T08:47:13.012Z,100829.72
2023-03-17T08:49:39.474Z,100833.66
2023-03-17T08:52:05.941Z,100830.25
2023-03-17T08:54:33.992Z,100827.81
2023-03-17T08:57:04.017Z,100829.63
2023-03-17T08:59:30.534Z,100821.44
2023-03-17T09:01:57.019Z,100822.28
2023-03-17T09:04:23.581Z,100826.84
2023-03-17T09:07:02.746Z,100830.34
2023-03-17T09:09:31.223Z,100826.84
2023-03-17T09:11:57.720Z,100825.72
2023-03-17T09:14:24.927Z,100828.88
2023-03-17T09:16:52.441Z,100819.81
2023-03-17T09:19:21.652Z,100820.06
2023-03-17T09:21:48.606Z,100817.69
2023-03-17T09:24:15.043Z,100825.06
2023-03-17T09:26:41.846Z,100834.47
2023-03-17T09:29:09.334Z,100831.69
2023-03-17T09:31:43.458Z,100822.84
2023-03-17T09:34:10.907Z,100835.50
2023-03-17T09:36:37.687Z,100829.13
2023-03-17T09:39:04.163Z,100830.41
2023-03-17T09:41:58.848Z,100832.47
2023-03-17T09:44:40.491Z,100838.25
2023-03-17T09:47:40.522Z,100838.06
2023-03-17T09:50:15.963Z,100843.66
2023-03-17T09:52:43.773Z,100842.81
2023-03-17T09:55:20.106Z,100839.91
2023-03-17T09:57:47.174Z,100841.00
2023-03-17T10:00:23.093Z,100844.59
2023-03-17T10:02:49.563Z,100850.06
2023-03-17T10:05:24.980Z,100844.44
2023-03-17T10:07:59.450Z,100842.28
2023-03-17T10:10:42.487Z,100844.56
2023-03-17T10:13:41.570Z,100855.44
2023-03-17T10:16:14.388Z,100860.13
2023-03-17T10:18:49.781Z,100863.13
2023-03-17T10:21:24.282Z,100856.50
2023-03-17T10:23:53.427Z,100855.78
2023-03-17T10:26:42.194Z,100860.25
2023-03-17T10:29:16.246Z,100867.91
2023-03-17T10:31:42.747Z,100873.47
2023-03-17T10:34:19.343Z,100871.94
2023-03-17T10:36:53.609Z,100870.34
2023-03-17T10:39:24.097Z,100872.69
2023-03-17T10:41:59.735Z,100875.94
2023-03-17T10:44:49.790Z,100880.00
2023-03-17T10:47:50.145Z,100897.94
2023-03-17T10:50:25.294Z,100904.00
2023-03-17T10:53:00.531Z,100886.00
2023-03-17T10:55:42.638Z,100882.44
2023-03-17T10:58:36.324Z,100874.91
2023-03-17T11:01:15.497Z,100873.22
2023-03-17T11:03:42.537Z,100864.19
2023-03-17T11:06:13.251Z,100861.97
2023-03-17T11:08:51.444Z,100853.63
2023-03-17T11:11:45.905Z,100849.88
2023-03-17T11:14:15.399Z,100845.47
2023-03-17T11:16:55.333Z,100845.13
2023-03-17T11:19:28.641Z,100841.00
2023-03-17T11:22:04.966Z,100840.56
2023-03-17T11:24:36.310Z,100845.81
2023-03-17T11:27:11.990Z,100845.69
2023-03-17T11:29:41.167Z,100840.66
2023-03-17T11:32:28.764Z,100829.34
2023-03-17T11:35:24.254Z,100826.09
2023-03-17T11:38:18.881Z,100823.88
2023-03-17T11:41:00.879Z,100820.97
2023-03-17T11:44:16.615Z,100812.31
2023-03-17T11:46:54.562Z,100833.47
2023-03-17T11:49:35.964Z,100820.47
2023-03-17T11:52:39.370Z,100824.91
2023-03-17T11:55:16.416Z,100817.72
2023-03-17T11:57:59.900Z,100821.81
2023-03-17T12:00:34.494Z,100819.88
2023-03-17T12:03:13.324Z,100823.72
2023-03-17T12:05:42.677Z,100829.38
2023-03-17T12:08:19.446Z,100838.34
2023-03-17T12:10:50.573Z,100839.19
2023-03-17T12:13:40.266Z,100826.50
2023-03-17T12:16:20.225Z,100823.19
2023-03-17T12:19:07.200Z,100807.66
2023-03-17T12:21:46.118Z,100805.28
2023-03-17T12:24:50.313Z,100787.00
2023-03-17T12:27:25.950Z,100792.75
2023-03-17T12:29:59.109Z,100786.88
2023-03-17T12:32:41.879Z,100781.38
2023-03-17T12:35:29.314Z,100784.00
2023-03-17T12:37:59.445Z,100783.75
2023-03-17T12:40:34.944Z,100778.28
2023-03-17T12:43:34.668Z,100777.31
2023-03-17T12:46:10.299Z,100774.56
2023-03-17T12:48:39.674Z,100773.22
2023-03-17T12:51:40.073Z,100778.59
2023-03-17T12:54:15.313Z,100775.13
2023-03-17T12:56:47.216Z,100773.31
2023-03-17T12:59:21.117Z,100778.22
2023-03-17T13:02:18.196Z,100777.31
2023-03-17T13:05:02.020Z,100770.53
2023-03-17T13:07:56.116Z,100771.34
2023-03-17T13:10:37.817Z,100786.59
2023-03-17T13:13:23.210Z,100786.97
2023-03-17T13:15:57.778Z,100797.13
2023-03-17T13:18:46.995Z,100792.84
2023-03-17T13:21:17.170Z,100787.56
2023-03-17T13:23:47.314Z,100788.78
2023-03-17T13:26:19.009Z,100785.31
2023-03-17T13:28:49.294Z,100779.00
2023-03-17T13:31:29.162Z,100781.47
2023-03-17T13:34:17.771Z,100783.97
2023-03-17T13:36:52.721Z,100779.59
2023-03-17T13:39:27.739Z,100779.44
2023-03-17T13:42:19.187Z,100778.38
2023-03-17T13:45:05.481Z,100773.69
2023-03-17T13:47:38.323Z,100780.38
2023-03-17T13:50:24.399Z,100773.31
2023-03-17T13:53:08.622Z,100766.25
2023-03-17T13:55:36.829Z,100763.97
2023-03-17T13:58:11.876Z,100758.38
2023-03-17T14:00:41.508Z,100753.22
2023-03-17T14:03:16.308Z,100754.44
2023-03-17T14:05:47.836Z,100756.22
2023-03-17T14:08:31.972Z,100759.59
2023-03-17T14:11:01.567Z,100765.19
2023-03-17T14:13:32.289Z,100764.31
2023-03-17T14:16:03.718Z,100773.31
2023-03-17T14:18:39.013Z,100766.38
2023-03-17T14:21:11.642Z,100767.91
2023-03-17T14:23:38.260Z,100761.00
2023-03-17T14:26:06.607Z,100761.59
2023-03-17T14:28:34.777Z,100761.19
2023-03-17T14:31:06.421Z,100753.31
2023-03-17T14:33:36.661Z,100748.78
2023-03-17T14:36:07.860Z,100744.47
2023-03-17T14:38:37.025Z,100750.06
2023-03-17T14:41:06.598Z,100731.72
2023-03-17T14:43:35.698Z,100739.13
2023-03-17T14:46:07.940Z,100734.34
2023-03-17T14:48:38.058Z,100732.88
2023-03-17T14:51:16.117Z,100734.53
2023-03-17T14:53:47.018Z,100735.34
2023-03-17T14:56:13.948Z,100722.53
2023-03-17T14:58:46.012Z,100719.38
2023-03-17T15:01:20.088Z,100716.06
2023-03-17T15:04:15.779Z,100717.00
2023-03-17T15:07:00.152Z,100720.34
2023-03-17T15:09:38.213Z,100726.69
2023-03-17T15:12:19.249Z,100721.31
2023-03-17T15:14:46.465Z,100718.63
2023-03-17T15:17:20.707Z,100726.19
2023-03-17T15:19:52.730Z,100713.28
2023-03-17T15:22:30.799Z,100717.47
2023-03-17T15:25:16.695Z,100704.03
2023-03-17T15:27:44.350Z,100708.34
2023-03-17T15:30:12.263Z,100705.47
2023-03-17T15:32:39.749Z,100696.59
2023-03-17T15:35:07.871Z,100701.47
2023-03-17T15:37:35.425Z,100699.81
2023-03-17T15:40:05.666Z,100701.03
2023-03-17T15:42:36.131Z,100690.63
2023-03-17T15:45:04.849Z,100691.84
2023-03-17T15:47:33.864Z,100694.16
2023-03-17T15:50:10.017Z,100689.16
2023-03-17T15:52:36.527Z,100690.38
2023-03-17T15:55:16.641Z,100692.25
2023-03-17T15:57:50.760Z,100693.38
2023-03-17T16:00:22.809Z,100682.25
2023-03-17T16:02:52.216Z,100692.06
2023-03-17T16:05:22.276Z,100682.63
2023-03-17T16:07:48.986Z,100688.13
2023-03-17T16:10:21.710Z,100682.19
2023-03-17T16:12:48.901Z,100688.53
2023-03-17T16:15:24.178Z,100687.94
2023-03-17T16:17:59.686Z,100696.91
2023-03-17T16:20:31.426Z,100691.22
2023-03-17T16:23:07.266Z,100690.50
2023-03-17T16:25:37.661Z,100697.91
2023-03-17T16:28:32.170Z,100696.38
2023-03-17T16:31:01.028Z,100700.19
2023-03-17T16:33:39.065Z,100698.53
2023-03-17T16:36:09.518Z,100706.81
2023-03-17T16:38:36.085Z,100710.38
2023-03-17T16:41:16.624Z,100708.03
2023-03-17T16:43:44.825Z,100705.63
2023-03-17T16:46:14.072Z,100698.09
2023-03-17T16:48:40.636Z,100708.16
2023-03-17T16:51:07.193Z,100711.03
2023-03-17T16:53:33.821Z,100715.69
2023-03-17T16:56:00.303Z,100711.66
2023-03-17T16:58:32.896Z,100707.56
2023-03-17T17:01:02.493Z,100709.63
2023-03-17T17:03:29.633Z,100708.19
2023-03-17T17:05:56.205Z,100716.31
2023-03-17T17:08:22.981Z,100720.25
2023-03-17T17:10:50.248Z,100731.03
2023-03-17T17:13:16.835Z,100726.94
2023-03-17T17:15:43.517Z,100721.81
2023-03-17T17:18:22.041Z,100720.47
2023-03-17T17:20:49.319Z,100722.63
2023-03-17T17:23:21.532Z,100709.00
2023-03-17T17:25:49.338Z,100714.63
2023-03-17T17:28:18.643Z,100709.00
2023-03-17T17:30:50.178Z,100711.97
2023-03-17T17:33:17.933Z,100720.13
2023-03-17T17:35:45.372Z,100720.44
2023-03-17T17:38:26.676Z,100727.63
2023-03-17T17:41:00.860Z,100722.69
2023-03-17T17:43:27.386Z,100729.00
2023-03-17T17:45:54.787Z,100725.56
2023-03-17T17:48:23.711Z,100734.63
2023-03-17T17:50:51.870Z,100726.16
2023-03-17T17:53:18.752Z,100729.00
2023-03-17T17:55:47.325Z,100725.78
2023-03-17T17:58:18.852Z,100732.22
2023-03-17T18:00:45.337Z,100727.28
2023-03-17T18:03:12.256Z,100723.13
2023-03-17T18:05:40.650Z,100721.78
2023-03-17T18:08:07.094Z,100712.34
2023-03-17T18:10:34.588Z,100721.19
2023-03-17T18:13:01.262Z,100715.34
2023-03-17T18:15:27.841Z,100716.38
2023-03-17T18:17:56.429Z,100710.53
2023-03-17T18:20:24.045Z,100717.56
2023-03-17T18:22:52.314Z,100717.81
2023-03-17T18:25:19.742Z,100722.91
2023-03-17T18:27:47.451Z,100723.13
2023-03-17T18:30:35.141Z,100714.44
2023-03-17T18:33:13.295Z,100716.38
2023-03-17T18:35:40.234Z,100716.38
2023-03-17T18:38:08.242Z,100721.69
2023-03-17T18:40:36.013Z,100724.31
2023-03-17T18:43:02.608Z,100727.16
2023-03-17T18:45:29.074Z,100722.88
2023-03-17T18:47:55.822Z,100715.97
2023-03-17T18:50:22.524Z,100721.44
2023-03-17T18:52:49.859Z,100716.44
2023-03-17T18:55:17.096Z,100716.53
2023-03-17T18:57:44.930Z,100724.50
2023-03-17T19:00:14.042Z,100718.63
2023-03-17T19:02:40.715Z,100727.53
2023-03-17T19:05:07.556Z,100725.03
2023-03-17T19:07:34.661Z,100723.34
2023-03-17T19:10:01.116Z,100726.09
2023-03-17T19:12:28.330Z,100724.66
2023-03-17T19:14:55.483Z,100724.66
2023-03-17T19:17:22.703Z,100719.41
2023-03-17T19:19:50.532Z,100718.69
2023-03-17T19:22:17.172Z,100714.25
2023-03-17T19:24:43.997Z,100721.41
2023-03-17T19:27:10.472Z,100717.22
2023-03-17T19:29:36.871Z,100726.06
2023-03-17T19:32:03.858Z,100727.81
2023-03-17T19:34:30.410Z,100721.72
2023-03-17T19:36:56.874Z,100726.97
2023-03-17T19:39:23.684Z,100721.03
2023-03-17T19:41:53.254Z,100718.63
2023-03-17T19:44:19.695Z,100716.09
2023-03-17T19:46:46.255Z,100715.25
2023-03-17T19:49:12.699Z,100718.09
2023-03-17T19:51:39.260Z,100726.19
2023-03-17T19:54:06.075Z,100731.63
2023-03-17T19:56:33.677Z,100722.84
2023-03-17T19:59:00.522Z,100722.84
2023-03-17T20:01:28.979Z,100722.84
2023-03-17T20:03:55.543Z,100729.03
2023-03-17T20:06:22.183Z,100732.72
2023-03-17T20:08:48.605Z,100724.03
2023-03-17T20:11:15.044Z,100733.66
2023-03-17T20:13:41.854Z,100739.97
2023-03-17T20:16:09.044Z,100739.09
2023-03-17T20:18:36.019Z,100739.97
2023-03-17T20:21:05.664Z,100740.88
2023-03-17T20:23:32.923Z,100743.50
2023-03-17T20:26:00.396Z,100748.66
2023-03-17T20:28:29.837Z,100743.50
2023-03-17T20:31:00.382Z,100740.06
2023-03-17T20:33:27.809Z,100744.34
2023-03-17T20:35:54.417Z,100752.19
2023-03-17T20:38:21.230Z,100750.44
2023-03-17T20:40:47.739Z,100753.06
2023-03-17T20:43:14.225Z,100751.97
2023-03-17T20:45:41.124Z,100761.53
2023-03-17T20:48:09.337Z,100755.47
2023-03-17T20:50:36.509Z,100763.31
2023-03-17T20:53:02.895Z,100776.41
2023-03-17T20:55:30.766Z,100771.19
2023-03-17T20:57:58.841Z,100772.94
2023-03-17T21:00:26.169Z,100775.56
2023-03-17T21:02:53.117Z,100777.47
2023-03-17T21:05:23.729Z,100782.72
2023-03-17T21:07:50.624Z,100788.03
2023-03-17T21:10:17.960Z,100784.72
2023-03-17T21:12:45.040Z,100784.72
2023-03-17T21:15:12.985Z,100784.78
2023-03-17T21:17:40.410Z,100791.00
2023-03-17T21:20:09.546Z,100792.88
2023-03-17T21:22:36.859Z,100792.16
2023-03-17T21:25:08.649Z,100808.91
2023-03-17T21:27:40.658Z,100807.34
2023-03-17T21:30:11.926Z,100807.34
2023-03-17T21:32:40.353Z,100805.75
2023-03-17T21:35:08.087Z,100810.16
2023-03-17T21:37:35.069Z,100804.09
2023-03-17T21:40:01.696Z,100801.59
2023-03-17T21:42:28.361Z,100798.22
2023-03-17T21:44:55.172Z,100804.50
2023-03-17T21:47:21.576Z,100804.50
2023-03-17T21:49:48.031Z,100807.25
2023-03-17T21:52:15.083Z,100804.84
2023-03-17T21:54:41.950Z,100810.91
2023-03-17T21:57:08.676Z,100815.41
2023-03-17T21:59:35.705Z,100814.56
2023-03-17T22:02:02.923Z,100815.53
2023-03-17T22:04:29.939Z,100806.91
2023-03-17T22:06:58.763Z,100804.41
2023-03-17T22:09:25.301Z,100806.22
2023-03-17T22:11:51.774Z,100805.25
2023-03-17T22:14:20.503Z,100811.53
2023-03-17T22:16:48.325Z,100812.47
2023-03-17T22:19:15.695Z,100822.31
2023-03-17T22:21:42.777Z,100822.53
2023-03-17T22:24:09.306Z,100819.91
2023-03-17T22:26:35.772Z,100818.13
2023-03-17T22:29:02.397Z,100825.47
2023-03-17T22:31:29.659Z,100834.44
2023-03-17T22:33:58.334Z,100844.19
2023-03-17T22:36:25.629Z,100845.22
2023-03-17T22:38:52.613Z,100843.78
2023-03-17T22:41:22.720Z,100848.16
2023-03-17T22:43:49.684Z,100849.22
2023-03-17T22:46:16.933Z,100848.47
2023-03-17T22:48:44.423Z,100847.81
2023-03-17T22:51:16.742Z,100848.03
2023-03-17T22:53:44.245Z,100838.63
2023-03-17T22:56:12.220Z,100847.31
2023-03-17T22:58:39.281Z,100850.00
2023-03-17T23:01:09.108Z,100857.03
2023-03-17T23:03:35.753Z,100851.97
2023-03-17T23:06:03.892Z,100847.69
2023-03-17T23:08:34.972Z,100856.47
2023-03-17T23:11:08.701Z,100853.94
2023-03-17T23:13:35.542Z,100861.91
2023-03-17T23:16:02.984Z,100865.56
2023-03-17T23:18:29.375Z,100865.75
2023-03-17T23:20:55.780Z,100863.25
2023-03-17T23:23:22.188Z,100859.25
2023-03-17T23:25:49.045Z,100857.84
2023-03-17T23:28:15.972Z,100860.66
2023-03-17T23:30:45.714Z,100861.03
2023-03-17T23:33:12.303Z,100862.09
2023-03-17T23:35:39.573Z,100862.19
2023-03-17T23:38:06.133Z,100854.34
2023-03-17T23:40:34.417Z,100842.53
2023-03-17T23:43:01.888Z,100842.59
2023-03-17T23:45:28.487Z,100838.31
2023-03-17T23:47:57.310Z,100838.53
2023-03-17T23:50:23.797Z,100840.38
2023-03-17T23:52:50.482Z,100851.03
2023-03-17T23:55:17.380Z,100852.91
2023-03-17T23:57:44.288Z,100851.44
